Weather at Kigali International Airport

Public forecast

Using degrees Celsius for public forecast. Weather courtesy of forecast.io.

Current aviation weather report (METAR) for Kigali International Airport

Retrieved 2021/10/15 22:00 UTC (57 minutes ago):

HRYR 152200Z 19003KT 9999 SCT025 SCT100 21/16 Q1018 NOSIG

Aviation forecast (TAF) for Kigali International Airport

Retrieved 2021/10/15 18:54 UTC (4 hours ago):

TAF HRYR 151700Z 1518/1624 05006KT 9999 FEW023CB SCT025 FM 152300 32003KT SCT026 SCT100 BECMG 1603/1606 00000KT 8000 BKN025 FM 160900 17008KT 9999 BKN024 TEMPO 1613/1617 08010G20KT -TSRA FEW023CB BKN025 BECMG 1619/1623 25005KT SCT025 SCT100